createdAt,value
2022-10-13T00:00:45.812Z,101617.24
2022-10-13T00:03:33.899Z,101617.86
2022-10-13T00:06:09.025Z,101617.98
2022-10-13T00:08:42.580Z,101614.73
2022-10-13T00:11:18.865Z,101612.58
2022-10-13T00:13:52.137Z,101610.89
2022-10-13T00:16:25.251Z,101608.17
2022-10-13T00:18:57.680Z,101606.83
2022-10-13T00:21:31.040Z,101603.36
2022-10-13T00:24:03.607Z,101603.61
2022-10-13T00:26:35.804Z,101604.16
2022-10-13T00:29:08.067Z,101604.64
2022-10-13T00:31:40.362Z,101605.73
2022-10-13T00:34:12.852Z,101605.48
2022-10-13T00:36:45.068Z,101604.09
2022-10-13T00:39:17.605Z,101599.71
2022-10-13T00:41:49.932Z,101602.33
2022-10-13T00:45:02.124Z,101601.79
2022-10-13T00:47:40.759Z,101601.66
2022-10-13T00:50:16.377Z,101599.85
2022-10-13T00:52:48.738Z,101599.52
2022-10-13T00:55:24.983Z,101599.84
2022-10-13T00:58:04.938Z,101600.66
2022-10-13T01:00:38.079Z,101603.90
2022-10-13T01:03:11.439Z,101604.38
2022-10-13T01:05:44.848Z,101603.63
2022-10-13T01:08:19.375Z,101604.65
2022-10-13T01:10:58.412Z,101605.70
2022-10-13T01:13:40.337Z,101607.42
2022-10-13T01:16:24.733Z,101605.95
2022-10-13T01:19:02.983Z,101608.81
2022-10-13T01:21:43.778Z,101614.79
2022-10-13T01:24:41.484Z,101611.84
2022-10-13T01:27:38.429Z,101613.02
2022-10-13T01:30:16.344Z,101612.86
2022-10-13T01:33:02.680Z,101617.90
2022-10-13T01:35:41.188Z,101624.04
2022-10-13T01:38:22.333Z,101620.77
2022-10-13T01:41:03.487Z,101618.73
2022-10-13T01:43:39.172Z,101615.27
2022-10-13T01:46:13.811Z,101611.46
2022-10-13T01:48:47.204Z,101614.78
2022-10-13T01:51:22.844Z,101615.89
2022-10-13T01:53:55.000Z,101614.19
2022-10-13T01:56:27.325Z,101611.20
2022-10-13T01:59:02.960Z,101606.48
2022-10-13T02:01:47.683Z,101603.53
2022-10-13T02:04:31.525Z,101598.77
2022-10-13T02:07:13.269Z,101600.87
2022-10-13T02:09:52.694Z,101598.92
2022-10-13T02:12:32.076Z,101595.20
2022-10-13T02:15:08.860Z,101598.78
2022-10-13T02:17:41.640Z,101599.11
2022-10-13T02:20:16.357Z,101602.41
2022-10-13T02:22:55.733Z,101597.29
2022-10-13T02:25:29.008Z,101594.30
2022-10-13T02:28:02.730Z,101588.90
2022-10-13T02:30:35.818Z,101586.83
2022-10-13T02:33:09.213Z,101586.54
2022-10-13T02:35:40.155Z,101585.62
2022-10-13T02:38:12.775Z,101587.70
2022-10-13T02:40:45.268Z,101587.81
2022-10-13T02:43:17.900Z,101585.90
2022-10-13T02:45:50.076Z,101587.56
2022-10-13T02:48:22.697Z,101586.53
2022-10-13T02:50:54.971Z,101585.50
2022-10-13T03:06:36.313Z,101587.60
2022-10-13T03:09:08.588Z,101586.14
2022-10-13T03:11:40.791Z,101588.23
2022-10-13T03:14:12.944Z,101592.11
2022-10-13T03:16:45.048Z,101593.91
2022-10-13T03:19:17.119Z,101595.81
2022-10-13T03:21:49.280Z,101593.69
2022-10-13T03:24:21.405Z,101594.09
2022-10-13T03:26:53.669Z,101599.02
2022-10-13T03:29:25.969Z,101589.95
2022-10-13T03:31:58.113Z,101593.62
2022-10-13T03:34:30.213Z,101591.05
2022-10-13T03:37:02.802Z,101591.45
2022-10-13T03:39:34.949Z,101585.44
2022-10-13T03:42:07.800Z,101583.35
2022-10-13T03:44:40.379Z,101585.73
2022-10-13T03:47:12.483Z,101583.79
2022-10-13T03:49:44.958Z,101583.10
2022-10-13T03:52:17.351Z,101585.05
2022-10-13T03:54:49.943Z,101586.45
2022-10-13T03:57:22.066Z,101587.71
2022-10-13T03:59:56.185Z,101588.08
2022-10-13T04:02:28.798Z,101590.55
2022-10-13T04:05:01.045Z,101591.48
2022-10-13T04:07:33.651Z,101590.89
2022-10-13T04:10:09.041Z,101592.83
2022-10-13T04:12:43.610Z,101590.61
2022-10-13T04:15:15.969Z,101591.98
2022-10-13T04:17:48.112Z,101587.63
2022-10-13T04:20:20.963Z,101586.23
2022-10-13T04:22:54.275Z,101588.64
2022-10-13T04:25:26.452Z,101595.21
2022-10-13T04:27:58.545Z,101595.53
2022-10-13T04:30:31.405Z,101591.75
2022-10-13T04:33:03.731Z,101589.73
2022-10-13T04:35:40.453Z,101593.55
2022-10-13T04:38:12.577Z,101592.65
2022-10-13T04:40:44.637Z,101593.55
2022-10-13T04:43:16.763Z,101590.23
2022-10-13T04:45:49.268Z,101590.33
2022-10-13T04:48:21.408Z,101585.80
2022-10-13T04:51:03.876Z,101582.18
2022-10-13T04:53:36.352Z,101581.88
2022-10-13T04:56:11.846Z,101580.70
2022-10-13T04:58:46.058Z,101582.42
2022-10-13T05:01:22.338Z,101581.23
2022-10-13T05:03:56.392Z,101583.09
2022-10-13T05:06:31.002Z,101583.98
2022-10-13T05:09:03.180Z,101580.86
2022-10-13T05:11:35.403Z,101575.45
2022-10-13T05:14:07.497Z,101580.23
2022-10-13T05:16:39.573Z,101589.70
2022-10-13T05:19:11.671Z,101591.84
2022-10-13T05:21:47.885Z,101595.17
2022-10-13T05:24:36.758Z,101597.71
2022-10-13T05:27:12.981Z,101599.76
2022-10-13T05:29:45.233Z,101600.98
2022-10-13T05:32:17.864Z,101600.42
2022-10-13T05:34:51.953Z,101602.42
2022-10-13T05:37:24.183Z,101602.02
2022-10-13T05:39:56.269Z,101602.51
2022-10-13T05:42:29.909Z,101597.52
2022-10-13T05:45:02.188Z,101597.73
2022-10-13T05:47:34.347Z,101606.02
2022-10-13T05:50:07.389Z,101605.13
2022-10-13T05:52:39.746Z,101607.23
2022-10-13T05:55:15.685Z,101612.41
2022-10-13T05:57:49.311Z,101608.23
2022-10-13T06:00:22.744Z,101615.63
2022-10-13T06:02:58.523Z,101617.98
2022-10-13T06:05:29.270Z,101620.69
2022-10-13T06:08:02.095Z,101620.67
2022-10-13T06:10:34.258Z,101623.29
2022-10-13T06:13:06.453Z,101626.55
2022-10-13T06:15:38.694Z,101627.86
2022-10-13T06:18:12.233Z,101628.60
2022-10-13T06:20:44.952Z,101629.39
2022-10-13T06:23:17.182Z,101629.94
2022-10-13T06:25:53.364Z,101630.52
2022-10-13T06:28:25.586Z,101627.08
2022-10-13T06:30:57.769Z,101613.46
2022-10-13T06:33:29.913Z,101618.27
2022-10-13T06:36:06.698Z,101621.33
2022-10-13T06:38:38.793Z,101625.36
2022-10-13T06:41:11.203Z,101621.30
2022-10-13T06:43:43.403Z,101625.45
2022-10-13T06:46:15.607Z,101627.57
2022-10-13T06:48:50.005Z,101625.73
2022-10-13T06:51:22.619Z,101624.69
2022-10-13T06:53:56.627Z,101625.30
2022-10-13T06:56:30.205Z,101621.70
2022-10-13T06:59:02.439Z,101624.46
2022-10-13T07:01:37.891Z,101623.34
2022-10-13T07:04:13.884Z,101621.92
2022-10-13T07:06:46.195Z,101625.53
2022-10-13T07:09:18.343Z,101621.98
2022-10-13T07:11:50.734Z,101626.05
2022-10-13T07:14:22.917Z,101628.01
2022-10-13T07:16:55.060Z,101626.73
2022-10-13T07:19:27.525Z,101632.20
2022-10-13T07:21:59.653Z,101629.03
2022-10-13T07:24:31.887Z,101624.35
2022-10-13T07:27:07.801Z,101618.19
2022-10-13T07:29:51.402Z,101615.80
2022-10-13T07:32:23.519Z,101612.55
2022-10-13T07:34:56.590Z,101612.06
2022-10-13T07:37:28.859Z,101618.20
2022-10-13T07:40:01.386Z,101617.65
2022-10-13T07:42:33.502Z,101614.05
2022-10-13T07:45:06.577Z,101615.78
2022-10-13T07:47:38.725Z,101616.39
2022-10-13T07:50:11.978Z,101616.77
2022-10-13T07:52:44.315Z,101623.38
2022-10-13T07:55:16.543Z,101621.34
2022-10-13T07:57:48.851Z,101615.48
2022-10-13T08:00:21.793Z,101623.98
2022-10-13T08:02:54.127Z,101619.81
2022-10-13T08:05:26.235Z,101623.21
2022-10-13T08:07:58.751Z,101622.42
2022-10-13T08:10:31.076Z,101620.66
2022-10-13T08:13:03.223Z,101619.11
2022-10-13T08:15:35.347Z,101621.14
2022-10-13T08:18:07.499Z,101618.98
2022-10-13T08:20:43.820Z,101619.61
2022-10-13T08:23:16.423Z,101614.78
2022-10-13T08:25:48.789Z,101613.56
2022-10-13T08:28:22.922Z,101613.39
2022-10-13T08:30:57.819Z,101611.10
2022-10-13T08:33:31.119Z,101609.07
2022-10-13T08:36:03.437Z,101608.45
2022-10-13T08:38:35.549Z,101604.66
2022-10-13T08:41:19.544Z,101606.36
2022-10-13T08:44:33.090Z,101604.77
2022-10-13T08:46:54.620Z,101602.27
2022-10-13T08:49:26.765Z,101599.23
2022-10-13T08:51:59.911Z,101598.86
2022-10-13T08:54:32.204Z,101596.79
2022-10-13T08:57:05.296Z,101593.13
2022-10-13T08:59:37.670Z,101592.58
2022-10-13T09:02:15.370Z,101590.08
2022-10-13T09:04:50.944Z,101589.07
2022-10-13T09:07:25.748Z,101584.62
2022-10-13T09:09:58.612Z,101581.83
2022-10-13T09:12:31.692Z,101583.08
2022-10-13T09:15:07.486Z,101582.86
2022-10-13T09:17:41.804Z,101584.80
2022-10-13T09:20:22.544Z,101584.57
2022-10-13T09:23:07.155Z,101581.98
2022-10-13T09:25:45.397Z,101582.42
2022-10-13T09:28:23.691Z,101578.55
2022-10-13T09:31:10.282Z,101577.30
2022-10-13T09:33:46.975Z,101572.25
2022-10-13T09:36:19.566Z,101575.31
2022-10-13T09:39:09.550Z,101570.89
2022-10-13T09:41:42.905Z,101569.91
2022-10-13T09:44:19.294Z,101566.19
2022-10-13T09:46:56.604Z,101563.98
2022-10-13T09:49:35.889Z,101565.34
2022-10-13T09:52:16.923Z,101562.93
2022-10-13T09:54:51.539Z,101560.70
2022-10-13T09:57:32.998Z,101560.81
2022-10-13T10:00:18.375Z,101559.20
2022-10-13T10:02:55.364Z,101557.85
2022-10-13T10:05:30.628Z,101553.44
2022-10-13T10:08:05.520Z,101551.70
2022-10-13T10:10:40.956Z,101550.30
2022-10-13T10:13:13.399Z,101547.03
2022-10-13T10:15:54.344Z,101541.19
2022-10-13T10:18:38.564Z,101536.85
2022-10-13T10:21:19.947Z,101536.77
2022-10-13T10:24:01.249Z,101535.55
2022-10-13T10:26:47.500Z,101531.14
2022-10-13T10:29:30.760Z,101530.33
2022-10-13T10:32:16.336Z,101525.17
2022-10-13T10:34:54.786Z,101526.48
2022-10-13T10:37:41.475Z,101519.52
2022-10-13T10:40:25.519Z,101519.13
2022-10-13T10:43:16.761Z,101516.31
2022-10-13T10:45:50.539Z,101513.23
2022-10-13T10:48:25.350Z,101511.33
2022-10-13T10:50:58.320Z,101508.36
2022-10-13T10:53:39.523Z,101504.72
2022-10-13T10:56:23.056Z,101498.35
2022-10-13T10:59:02.669Z,101497.62
2022-10-13T11:01:40.504Z,101488.64
2022-10-13T11:04:36.453Z,101484.87
2022-10-13T11:07:14.364Z,101480.67
2022-10-13T11:10:19.016Z,101480.30
2022-10-13T11:13:22.344Z,101477.90
2022-10-13T11:15:55.604Z,101472.58
2022-10-13T11:19:10.448Z,101471.37
2022-10-13T11:22:19.776Z,101468.23
2022-10-13T11:25:01.863Z,101459.19
2022-10-13T11:27:47.054Z,101454.89
2022-10-13T11:30:50.285Z,101451.69
2022-10-13T11:33:56.514Z,101445.08
2022-10-13T11:36:55.840Z,101446.34
2022-10-13T11:40:06.970Z,101439.38
2022-10-13T11:43:23.651Z,101438.10
2022-10-13T11:46:08.344Z,101432.58
2022-10-13T11:49:02.981Z,101428.17
2022-10-13T11:51:58.011Z,101429.79
2022-10-13T11:54:37.973Z,101428.10
2022-10-13T11:57:22.246Z,101423.48
2022-10-13T11:59:56.445Z,101419.48
2022-10-13T12:02:29.809Z,101416.94
2022-10-13T12:05:08.924Z,101415.98
2022-10-13T12:07:44.076Z,101416.77
2022-10-13T12:10:24.862Z,101414.85
2022-10-13T12:12:58.538Z,101416.02
2022-10-13T12:15:36.224Z,101415.02
2022-10-13T12:18:23.615Z,101415.60
2022-10-13T12:20:57.994Z,101415.08
2022-10-13T12:23:31.491Z,101412.88
2022-10-13T12:26:04.410Z,101414.13
2022-10-13T12:28:50.929Z,101408.89
2022-10-13T12:31:25.931Z,101412.42
2022-10-13T12:33:59.760Z,101408.10
2022-10-13T12:36:33.879Z,101407.13
2022-10-13T12:39:12.083Z,101401.68
2022-10-13T12:41:47.906Z,101397.66
2022-10-13T12:44:22.273Z,101395.14
2022-10-13T12:46:58.866Z,101393.09
2022-10-13T12:49:32.863Z,101388.38
2022-10-13T12:52:14.680Z,101386.77
2022-10-13T12:54:53.460Z,101380.95
2022-10-13T12:57:36.261Z,101380.30
2022-10-13T13:00:24.313Z,101377.60
2022-10-13T13:02:58.626Z,101371.60
2022-10-13T13:05:36.259Z,101375.94
2022-10-13T13:08:23.649Z,101376.45
2022-10-13T13:10:59.895Z,101372.73
2022-10-13T13:13:32.739Z,101373.15
2022-10-13T13:16:18.921Z,101369.20
2022-10-13T13:18:51.672Z,101361.69
2022-10-13T13:21:23.909Z,101363.82
2022-10-13T13:23:55.993Z,101366.73
2022-10-13T13:26:28.223Z,101369.93
2022-10-13T13:29:00.395Z,101373.50
2022-10-13T13:31:32.480Z,101374.04
2022-10-13T13:34:04.575Z,101374.73
2022-10-13T13:36:36.781Z,101373.27
2022-10-13T13:39:13.736Z,101371.80
2022-10-13T13:41:45.870Z,101366.84
2022-10-13T13:44:18.028Z,101365.89
2022-10-13T13:46:50.092Z,101361.73
2022-10-13T13:49:22.284Z,101362.21
2022-10-13T13:51:54.389Z,101360.50
2022-10-13T13:54:26.527Z,101362.42
2022-10-13T13:56:58.997Z,101365.05
2022-10-13T13:59:31.369Z,101365.69
2022-10-13T14:02:03.497Z,101361.84
2022-10-13T14:04:35.986Z,101358.64
2022-10-13T14:07:08.113Z,101359.63
2022-10-13T14:09:40.389Z,101351.64
2022-10-13T14:12:12.834Z,101355.05
2022-10-13T14:14:44.990Z,101351.56
2022-10-13T14:17:17.265Z,101352.73
2022-10-13T14:19:49.324Z,101350.66
2022-10-13T14:22:21.735Z,101348.04
2022-10-13T14:24:54.199Z,101351.23
2022-10-13T14:27:26.367Z,101351.00
2022-10-13T14:29:58.465Z,101346.67
2022-10-13T14:32:30.564Z,101344.60
2022-10-13T14:35:02.590Z,101343.10
2022-10-13T14:37:35.033Z,101336.83
2022-10-13T14:40:09.171Z,101333.23
2022-10-13T14:42:42.682Z,101333.52
2022-10-13T14:45:15.947Z,101339.97
2022-10-13T14:47:48.193Z,101344.12
2022-10-13T14:50:20.353Z,101346.50
2022-10-13T14:52:52.424Z,101344.09
2022-10-13T14:55:24.665Z,101344.52
2022-10-13T14:57:56.703Z,101343.16
2022-10-13T15:00:28.919Z,101345.58
2022-10-13T15:03:01.017Z,101347.05
2022-10-13T15:05:33.496Z,101343.77
2022-10-13T15:08:05.978Z,101349.83
2022-10-13T15:10:38.848Z,101348.23
2022-10-13T15:13:10.909Z,101354.79
2022-10-13T15:15:49.943Z,101355.25
2022-10-13T15:18:25.791Z,101356.60
2022-10-13T15:21:00.771Z,101355.14
2022-10-13T15:23:32.891Z,101355.17
2022-10-13T15:26:05.749Z,101355.85
2022-10-13T15:28:41.081Z,101356.84
2022-10-13T15:31:14.027Z,101356.55
2022-10-13T15:33:49.219Z,101351.83
2022-10-13T15:36:22.238Z,101352.38
2022-10-13T15:38:54.767Z,101353.44
2022-10-13T15:41:26.884Z,101355.87
2022-10-13T15:43:58.984Z,101359.41
2022-10-13T15:46:31.612Z,101363.59
2022-10-13T15:49:03.792Z,101366.30
2022-10-13T15:51:36.140Z,101359.73
2022-10-13T15:54:08.525Z,101372.10
2022-10-13T15:56:40.591Z,101372.64
2022-10-13T15:59:12.772Z,101368.89
2022-10-13T16:01:45.004Z,101368.76
2022-10-13T16:04:17.171Z,101366.31
2022-10-13T16:06:49.307Z,101366.96
2022-10-13T16:09:21.480Z,101360.95
2022-10-13T16:11:55.340Z,101360.13
2022-10-13T16:14:27.438Z,101358.92
2022-10-13T16:16:59.556Z,101358.44
2022-10-13T16:19:31.643Z,101361.21
2022-10-13T16:22:04.131Z,101358.73
2022-10-13T16:24:36.344Z,101359.20
2022-10-13T16:27:09.965Z,101356.52
2022-10-13T16:29:42.038Z,101355.48
2022-10-13T16:32:14.212Z,101359.93
2022-10-13T16:34:47.735Z,101357.77
2022-10-13T16:37:20.272Z,101361.70
2022-10-13T16:39:52.638Z,101364.22
2022-10-13T16:42:24.909Z,101363.04
2022-10-13T16:44:57.077Z,101364.70
2022-10-13T16:47:29.292Z,101365.41
2022-10-13T16:50:01.347Z,101364.86
2022-10-13T16:52:33.585Z,101363.13
2022-10-13T16:55:06.672Z,101363.59
2022-10-13T16:57:38.789Z,101359.18
2022-10-13T17:00:12.928Z,101361.43
2022-10-13T17:02:45.421Z,101359.44
2022-10-13T17:05:17.808Z,101358.48
2022-10-13T17:07:49.935Z,101351.89
2022-10-13T17:10:21.986Z,101353.90
2022-10-13T17:12:54.651Z,101355.36
2022-10-13T17:15:26.852Z,101359.38
2022-10-13T17:17:58.910Z,101357.83
2022-10-13T17:20:31.121Z,101358.12
2022-10-13T17:23:03.192Z,101358.00
2022-10-13T17:25:36.704Z,101357.91
2022-10-13T17:28:08.764Z,101354.03
2022-10-13T17:30:40.938Z,101354.23
2022-10-13T17:33:13.400Z,101352.27
2022-10-13T17:35:45.483Z,101350.94
2022-10-13T17:38:17.511Z,101346.56
2022-10-13T17:40:49.567Z,101357.61
2022-10-13T17:43:21.606Z,101354.20
2022-10-13T17:45:53.791Z,101352.70
2022-10-13T17:48:25.987Z,101352.67
2022-10-13T17:51:02.496Z,101348.77
2022-10-13T17:53:34.604Z,101348.40
2022-10-13T17:56:09.141Z,101346.94
2022-10-13T17:58:43.155Z,101349.00
2022-10-13T18:01:18.839Z,101346.49
2022-10-13T18:03:54.343Z,101345.55
2022-10-13T18:06:26.789Z,101343.97
2022-10-13T18:08:58.878Z,101345.36
2022-10-13T18:11:31.061Z,101344.09
2022-10-13T18:14:03.315Z,101349.45
2022-10-13T18:16:36.607Z,101361.16
2022-10-13T18:19:08.706Z,101368.70
2022-10-13T18:21:40.800Z,101373.10
2022-10-13T18:24:13.555Z,101366.80
2022-10-13T18:26:45.729Z,101365.71
2022-10-13T18:29:17.883Z,101365.64
2022-10-13T18:31:50.028Z,101367.54
2022-10-13T18:34:22.267Z,101373.20
2022-10-13T18:36:56.073Z,101378.84
2022-10-13T18:39:30.318Z,101381.63
2022-10-13T18:42:02.543Z,101383.10
2022-10-13T18:44:34.583Z,101382.58
2022-10-13T18:47:07.436Z,101380.77
2022-10-13T18:49:39.488Z,101385.59
2022-10-13T18:52:12.131Z,101384.81
2022-10-13T18:54:45.612Z,101390.50
2022-10-13T18:57:17.889Z,101392.14
2022-10-13T18:59:50.147Z,101393.84
2022-10-13T19:02:22.439Z,101396.89
2022-10-13T19:04:54.612Z,101398.96
2022-10-13T19:07:26.856Z,101400.77
2022-10-13T19:09:58.923Z,101401.65
2022-10-13T19:12:30.992Z,101400.27
2022-10-13T19:15:03.135Z,101399.19
2022-10-13T19:17:35.353Z,101397.04
2022-10-13T19:20:09.659Z,101396.29
2022-10-13T19:22:41.752Z,101402.24
2022-10-13T19:25:13.987Z,101408.40
2022-10-13T19:27:46.104Z,101408.35
2022-10-13T19:30:18.537Z,101406.56
2022-10-13T19:32:50.652Z,101411.05
2022-10-13T19:35:22.770Z,101412.02
2022-10-13T19:37:54.852Z,101408.05
2022-10-13T19:40:26.988Z,101414.05
2022-10-13T19:42:59.964Z,101418.98
2022-10-13T19:45:32.380Z,101421.00
2022-10-13T19:48:04.881Z,101422.90
2022-10-13T19:50:37.916Z,101422.54
2022-10-13T19:53:10.278Z,101434.42
2022-10-13T19:55:44.874Z,101426.05
2022-10-13T19:58:18.003Z,101420.33
2022-10-13T20:00:50.753Z,101422.56
2022-10-13T20:03:22.840Z,101422.88
2022-10-13T20:05:54.932Z,101412.39
2022-10-13T20:08:27.083Z,101409.08
2022-10-13T20:11:00.790Z,101418.00
2022-10-13T20:13:32.843Z,101418.41
2022-10-13T20:16:11.128Z,101419.48
2022-10-13T20:18:43.896Z,101415.11
2022-10-13T20:21:17.939Z,101408.11
2022-10-13T20:23:50.013Z,101419.63
2022-10-13T20:26:22.854Z,101415.27
2022-10-13T20:28:56.147Z,101417.59
2022-10-13T20:31:29.875Z,101421.13
2022-10-13T20:34:02.324Z,101416.95
2022-10-13T20:36:38.570Z,101417.17
2022-10-13T20:39:11.402Z,101411.93
2022-10-13T20:41:43.892Z,101408.50
2022-10-13T20:44:16.004Z,101407.67
2022-10-13T20:46:48.083Z,101408.71
2022-10-13T20:49:20.280Z,101402.31
2022-10-13T20:51:52.303Z,101403.23
2022-10-13T20:54:25.015Z,101399.56
2022-10-13T20:56:58.022Z,101396.40
2022-10-13T20:59:30.147Z,101395.80
2022-10-13T21:02:02.249Z,101390.83
2022-10-13T21:04:34.593Z,101393.92
2022-10-13T21:07:06.727Z,101390.86
2022-10-13T21:09:39.415Z,101388.89
2022-10-13T21:12:11.652Z,101389.05
2022-10-13T21:14:43.791Z,101392.58
2022-10-13T21:17:16.005Z,101386.91
2022-10-13T21:19:48.371Z,101386.03
2022-10-13T21:22:20.897Z,101388.38
2022-10-13T21:24:53.163Z,101385.32
2022-10-13T21:27:25.428Z,101382.84
2022-10-13T21:29:57.514Z,101374.79
2022-10-13T21:32:30.789Z,101377.70
2022-10-13T21:35:02.889Z,101376.78
2022-10-13T21:37:38.113Z,101378.17
2022-10-13T21:40:12.339Z,101374.41
2022-10-13T21:42:44.492Z,101372.91
2022-10-13T21:45:16.694Z,101375.90
2022-10-13T21:47:51.280Z,101371.27
2022-10-13T21:50:23.505Z,101374.18
2022-10-13T21:52:55.600Z,101375.52
2022-10-13T21:55:27.753Z,101373.54
2022-10-13T21:58:05.144Z,101371.02
2022-10-13T22:00:37.794Z,101370.14
2022-10-13T22:03:09.904Z,101368.37
2022-10-13T22:05:42.095Z,101366.88
2022-10-13T22:08:14.149Z,101365.73
2022-10-13T22:10:46.271Z,101365.23
2022-10-13T22:13:18.272Z,101365.61
2022-10-13T22:15:50.638Z,101363.16
2022-10-13T22:18:22.775Z,101360.51
2022-10-13T22:20:54.868Z,101360.43
2022-10-13T22:23:26.953Z,101356.90
2022-10-13T22:25:59.013Z,101357.42
2022-10-13T22:28:36.894Z,101349.25
2022-10-13T22:31:11.353Z,101358.51
2022-10-13T22:33:44.793Z,101357.98
2022-10-13T22:36:18.848Z,101357.67
2022-10-13T22:38:52.653Z,101358.94
2022-10-13T22:41:24.799Z,101359.39
2022-10-13T22:43:58.780Z,101358.56
2022-10-13T22:46:33.113Z,101358.99
2022-10-13T22:49:07.037Z,101360.13
2022-10-13T22:51:39.325Z,101363.64
2022-10-13T22:54:12.517Z,101359.77
2022-10-13T22:56:44.613Z,101355.83
2022-10-13T22:59:16.684Z,101355.80
2022-10-13T23:01:50.091Z,101354.33
2022-10-13T23:04:22.061Z,101354.90
2022-10-13T23:06:54.207Z,101360.77
2022-10-13T23:09:26.252Z,101357.83
2022-10-13T23:11:59.909Z,101358.13
2022-10-13T23:14:32.303Z,101361.58
2022-10-13T23:17:04.505Z,101362.11
2022-10-13T23:19:36.965Z,101358.92
2022-10-13T23:22:09.209Z,101359.14
2022-10-13T23:24:41.455Z,101359.33
2022-10-13T23:27:13.732Z,101364.64
2022-10-13T23:29:45.989Z,101360.06
2022-10-13T23:32:18.149Z,101360.54
2022-10-13T23:34:50.243Z,101360.16
2022-10-13T23:37:22.733Z,101361.45
2022-10-13T23:39:55.214Z,101363.39
2022-10-13T23:42:27.316Z,101366.66
2022-10-13T23:44:59.721Z,101360.10
2022-10-13T23:47:31.816Z,101363.32
2022-10-13T23:50:04.005Z,101370.98
2022-10-13T23:52:36.079Z,101367.78
2022-10-13T23:55:09.292Z,101370.08
2022-10-13T23:57:41.360Z,101364.73
